sensor_id;sensor_type;location;lat;lon;timestamp;P1;durP1;ratioP1;P2;durP2;ratioP2
75358;SDS011;64046;51.978;5.934;2023-04-15T00:01:11;5.63;;;3.25;;
75358;SDS011;64046;51.978;5.934;2023-04-15T00:03:44;7.15;;;3.53;;
75358;SDS011;64046;51.978;5.934;2023-04-15T00:06:13;5.70;;;3.10;;
75358;SDS011;64046;51.978;5.934;2023-04-15T00:08:42;6.43;;;3.15;;
75358;SDS011;64046;51.978;5.934;2023-04-15T00:11:11;6.88;;;3.20;;
75358;SDS011;64046;51.978;5.934;2023-04-15T00:13:40;8.13;;;3.55;;
75358;SDS011;64046;51.978;5.934;2023-04-15T00:16:13;7.47;;;3.90;;
75358;SDS011;64046;51.978;5.934;2023-04-15T00:18:42;6.25;;;3.42;;
75358;SDS011;64046;51.978;5.934;2023-04-15T00:21:11;4.70;;;2.78;;
75358;SDS011;64046;51.978;5.934;2023-04-15T00:23:40;5.57;;;3.72;;
75358;SDS011;64046;51.978;5.934;2023-04-15T00:26:09;6.88;;;3.45;;
75358;SDS011;64046;51.978;5.934;2023-04-15T00:28:40;6.28;;;3.33;;
75358;SDS011;64046;51.978;5.934;2023-04-15T00:31:09;9.30;;;3.67;;
75358;SDS011;64046;51.978;5.934;2023-04-15T00:33:42;8.00;;;3.75;;
75358;SDS011;64046;51.978;5.934;2023-04-15T00:36:11;7.88;;;3.65;;
75358;SDS011;64046;51.978;5.934;2023-04-15T00:38:40;5.38;;;3.20;;
75358;SDS011;64046;51.978;5.934;2023-04-15T00:41:09;5.32;;;3.63;;
75358;SDS011;64046;51.978;5.934;2023-04-15T00:43:39;6.60;;;3.72;;
75358;SDS011;64046;51.978;5.934;2023-04-15T00:46:08;9.50;;;3.45;;
75358;SDS011;64046;51.978;5.934;2023-04-15T00:48:43;6.78;;;3.60;;
75358;SDS011;64046;51.978;5.934;2023-04-15T00:51:12;8.25;;;3.85;;
75358;SDS011;64046;51.978;5.934;2023-04-15T00:53:41;7.68;;;3.92;;
75358;SDS011;64046;51.978;5.934;2023-04-15T00:56:11;6.68;;;3.20;;
75358;SDS011;64046;51.978;5.934;2023-04-15T00:58:41;4.22;;;2.90;;
75358;SDS011;64046;51.978;5.934;2023-04-15T01:01:11;10.07;;;3.30;;
75358;SDS011;64046;51.978;5.934;2023-04-15T01:03:43;6.97;;;3.53;;
75358;SDS011;64046;51.978;5.934;2023-04-15T01:06:12;5.85;;;3.38;;
75358;SDS011;64046;51.978;5.934;2023-04-15T01:08:42;5.30;;;3.33;;
75358;SDS011;64046;51.978;5.934;2023-04-15T01:11:11;7.10;;;3.40;;
75358;SDS011;64046;51.978;5.934;2023-04-15T01:13:40;9.70;;;3.30;;
75358;SDS011;64046;51.978;5.934;2023-04-15T01:16:10;5.50;;;3.70;;
75358;SDS011;64046;51.978;5.934;2023-04-15T01:18:39;7.70;;;3.42;;
75358;SDS011;64046;51.978;5.934;2023-04-15T01:21:12;8.13;;;3.40;;
75358;SDS011;64046;51.978;5.934;2023-04-15T01:23:41;4.65;;;3.50;;
75358;SDS011;64046;51.978;5.934;2023-04-15T01:26:14;7.75;;;3.65;;
75358;SDS011;64046;51.978;5.934;2023-04-15T01:28:45;7.40;;;4.20;;
75358;SDS011;64046;51.978;5.934;2023-04-15T01:31:14;5.63;;;3.40;;
75358;SDS011;64046;51.978;5.934;2023-04-15T01:33:43;5.70;;;3.30;;
75358;SDS011;64046;51.978;5.934;2023-04-15T01:36:14;4.65;;;3.45;;
75358;SDS011;64046;51.978;5.934;2023-04-15T01:38:43;4.72;;;3.22;;
75358;SDS011;64046;51.978;5.934;2023-04-15T01:41:16;7.25;;;3.58;;
75358;SDS011;64046;51.978;5.934;2023-04-15T01:43:51;6.15;;;3.60;;
75358;SDS011;64046;51.978;5.934;2023-04-15T01:46:21;6.07;;;3.55;;
75358;SDS011;64046;51.978;5.934;2023-04-15T01:48:50;5.32;;;3.30;;
75358;SDS011;64046;51.978;5.934;2023-04-15T01:51:19;5.85;;;3.58;;
75358;SDS011;64046;51.978;5.934;2023-04-15T01:53:48;8.18;;;4.35;;
75358;SDS011;64046;51.978;5.934;2023-04-15T01:56:20;6.18;;;4.25;;
75358;SDS011;64046;51.978;5.934;2023-04-15T01:58:50;6.35;;;3.53;;
75358;SDS011;64046;51.978;5.934;2023-04-15T02:01:19;5.25;;;3.25;;
75358;SDS011;64046;51.978;5.934;2023-04-15T02:03:48;4.32;;;3.30;;
75358;SDS011;64046;51.978;5.934;2023-04-15T02:06:17;5.63;;;3.63;;
75358;SDS011;64046;51.978;5.934;2023-04-15T02:08:47;7.07;;;3.72;;
75358;SDS011;64046;51.978;5.934;2023-04-15T02:11:16;6.30;;;3.80;;
75358;SDS011;64046;51.978;5.934;2023-04-15T02:13:48;8.52;;;3.80;;
75358;SDS011;64046;51.978;5.934;2023-04-15T02:16:17;6.82;;;3.83;;
75358;SDS011;64046;51.978;5.934;2023-04-15T02:18:46;5.28;;;3.25;;
75358;SDS011;64046;51.978;5.934;2023-04-15T02:21:16;8.82;;;4.18;;
75358;SDS011;64046;51.978;5.934;2023-04-15T02:23:46;6.50;;;3.65;;
75358;SDS011;64046;51.978;5.934;2023-04-15T02:26:16;7.97;;;4.75;;
75358;SDS011;64046;51.978;5.934;2023-04-15T02:28:48;7.35;;;4.75;;
75358;SDS011;64046;51.978;5.934;2023-04-15T02:31:17;10.75;;;4.32;;
75358;SDS011;64046;51.978;5.934;2023-04-15T02:33:47;7.28;;;3.90;;
75358;SDS011;64046;51.978;5.934;2023-04-15T02:36:16;6.75;;;4.28;;
75358;SDS011;64046;51.978;5.934;2023-04-15T02:38:46;6.93;;;4.55;;
75358;SDS011;64046;51.978;5.934;2023-04-15T02:41:16;6.53;;;4.65;;
75358;SDS011;64046;51.978;5.934;2023-04-15T02:43:48;6.55;;;3.53;;
75358;SDS011;64046;51.978;5.934;2023-04-15T02:46:18;7.13;;;3.40;;
75358;SDS011;64046;51.978;5.934;2023-04-15T02:48:47;7.22;;;4.22;;
75358;SDS011;64046;51.978;5.934;2023-04-15T02:51:18;7.93;;;4.43;;
75358;SDS011;64046;51.978;5.934;2023-04-15T02:53:49;5.78;;;3.92;;
75358;SDS011;64046;51.978;5.934;2023-04-15T02:56:18;5.20;;;3.88;;
75358;SDS011;64046;51.978;5.934;2023-04-15T02:58:51;5.15;;;3.60;;
75358;SDS011;64046;51.978;5.934;2023-04-15T03:01:21;8.27;;;4.85;;
75358;SDS011;64046;51.978;5.934;2023-04-15T03:03:51;8.40;;;4.63;;
75358;SDS011;64046;51.978;5.934;2023-04-15T03:06:20;7.88;;;4.60;;
75358;SDS011;64046;51.978;5.934;2023-04-15T03:08:49;8.32;;;4.47;;
75358;SDS011;64046;51.978;5.934;2023-04-15T03:11:19;5.95;;;3.90;;
75358;SDS011;64046;51.978;5.934;2023-04-15T03:13:51;5.50;;;3.50;;
75358;SDS011;64046;51.978;5.934;2023-04-15T03:16:26;9.82;;;4.57;;
75358;SDS011;64046;51.978;5.934;2023-04-15T03:18:57;7.32;;;4.18;;
75358;SDS011;64046;51.978;5.934;2023-04-15T03:21:26;7.63;;;4.45;;
75358;SDS011;64046;51.978;5.934;2023-04-15T03:23:55;6.55;;;4.07;;
75358;SDS011;64046;51.978;5.934;2023-04-15T03:26:25;8.30;;;5.18;;
75358;SDS011;64046;51.978;5.934;2023-04-15T03:29:01;8.10;;;5.07;;
75358;SDS011;64046;51.978;5.934;2023-04-15T03:31:31;8.60;;;5.00;;
75358;SDS011;64046;51.978;5.934;2023-04-15T03:34:00;9.98;;;4.88;;
75358;SDS011;64046;51.978;5.934;2023-04-15T03:36:29;9.35;;;5.43;;
75358;SDS011;64046;51.978;5.934;2023-04-15T03:38:59;11.07;;;5.13;;
75358;SDS011;64046;51.978;5.934;2023-04-15T03:41:29;7.88;;;5.00;;
75358;SDS011;64046;51.978;5.934;2023-04-15T03:44:01;6.90;;;4.85;;
75358;SDS011;64046;51.978;5.934;2023-04-15T03:46:30;9.98;;;5.13;;
75358;SDS011;64046;51.978;5.934;2023-04-15T03:48:59;6.68;;;4.68;;
75358;SDS011;64046;51.978;5.934;2023-04-15T03:51:29;8.10;;;5.10;;
75358;SDS011;64046;51.978;5.934;2023-04-15T03:53:58;6.75;;;4.60;;
75358;SDS011;64046;51.978;5.934;2023-04-15T03:56:28;8.15;;;4.70;;
75358;SDS011;64046;51.978;5.934;2023-04-15T03:58:57;6.45;;;4.65;;
75358;SDS011;64046;51.978;5.934;2023-04-15T04:01:28;8.35;;;4.55;;
75358;SDS011;64046;51.978;5.934;2023-04-15T04:03:58;6.90;;;4.50;;
75358;SDS011;64046;51.978;5.934;2023-04-15T04:06:27;7.20;;;4.85;;
75358;SDS011;64046;51.978;5.934;2023-04-15T04:08:56;7.32;;;4.93;;
75358;SDS011;64046;51.978;5.934;2023-04-15T04:11:26;6.35;;;4.82;;
75358;SDS011;64046;51.978;5.934;2023-04-15T04:13:56;9.30;;;5.32;;
75358;SDS011;64046;51.978;5.934;2023-04-15T04:16:25;9.30;;;5.60;;
75358;SDS011;64046;51.978;5.934;2023-04-15T04:18:57;8.60;;;5.15;;
75358;SDS011;64046;51.978;5.934;2023-04-15T04:21:26;7.22;;;5.05;;
75358;SDS011;64046;51.978;5.934;2023-04-15T04:23:56;8.57;;;5.63;;
75358;SDS011;64046;51.978;5.934;2023-04-15T04:26:25;10.25;;;5.72;;
75358;SDS011;64046;51.978;5.934;2023-04-15T04:28:54;8.52;;;5.65;;
75358;SDS011;64046;51.978;5.934;2023-04-15T04:31:23;8.98;;;5.15;;
75358;SDS011;64046;51.978;5.934;2023-04-15T04:33:52;7.97;;;4.95;;
75358;SDS011;64046;51.978;5.934;2023-04-15T04:36:24;8.13;;;5.45;;
75358;SDS011;64046;51.978;5.934;2023-04-15T04:38:53;6.13;;;4.60;;
75358;SDS011;64046;51.978;5.934;2023-04-15T04:41:22;8.27;;;5.45;;
75358;SDS011;64046;51.978;5.934;2023-04-15T04:43:51;6.40;;;4.45;;
75358;SDS011;64046;51.978;5.934;2023-04-15T04:46:20;7.57;;;4.80;;
75358;SDS011;64046;51.978;5.934;2023-04-15T04:48:49;8.45;;;5.40;;
75358;SDS011;64046;51.978;5.934;2023-04-15T04:51:18;7.68;;;4.55;;
75358;SDS011;64046;51.978;5.934;2023-04-15T04:53:50;7.40;;;5.00;;
75358;SDS011;64046;51.978;5.934;2023-04-15T04:56:19;8.80;;;5.53;;
75358;SDS011;64046;51.978;5.934;2023-04-15T04:58:49;9.18;;;5.57;;
75358;SDS011;64046;51.978;5.934;2023-04-15T05:01:18;9.65;;;6.05;;
75358;SDS011;64046;51.978;5.934;2023-04-15T05:03:47;7.05;;;5.10;;
75358;SDS011;64046;51.978;5.934;2023-04-15T05:06:16;7.72;;;5.50;;
75358;SDS011;64046;51.978;5.934;2023-04-15T05:08:45;9.20;;;6.25;;
75358;SDS011;64046;51.978;5.934;2023-04-15T05:11:18;8.90;;;5.18;;
75358;SDS011;64046;51.978;5.934;2023-04-15T05:13:47;9.45;;;6.65;;
75358;SDS011;64046;51.978;5.934;2023-04-15T05:16:16;9.40;;;5.95;;
75358;SDS011;64046;51.978;5.934;2023-04-15T05:18:45;8.85;;;5.35;;
75358;SDS011;64046;51.978;5.934;2023-04-15T05:21:14;9.50;;;6.07;;
75358;SDS011;64046;51.978;5.934;2023-04-15T05:23:44;9.27;;;5.50;;
75358;SDS011;64046;51.978;5.934;2023-04-15T05:26:13;9.82;;;6.03;;
75358;SDS011;64046;51.978;5.934;2023-04-15T05:28:45;8.13;;;6.25;;
75358;SDS011;64046;51.978;5.934;2023-04-15T05:31:14;9.65;;;5.75;;
75358;SDS011;64046;51.978;5.934;2023-04-15T05:33:43;13.45;;;8.02;;
75358;SDS011;64046;51.978;5.934;2023-04-15T05:36:12;9.48;;;6.30;;
75358;SDS011;64046;51.978;5.934;2023-04-15T05:38:42;10.50;;;6.32;;
75358;SDS011;64046;51.978;5.934;2023-04-15T05:41:11;11.93;;;7.45;;
75358;SDS011;64046;51.978;5.934;2023-04-15T05:43:40;8.57;;;5.82;;
75358;SDS011;64046;51.978;5.934;2023-04-15T05:46:12;9.80;;;6.70;;
75358;SDS011;64046;51.978;5.934;2023-04-15T05:48:41;9.45;;;6.75;;
75358;SDS011;64046;51.978;5.934;2023-04-15T05:51:10;8.88;;;6.53;;
75358;SDS011;64046;51.978;5.934;2023-04-15T05:53:39;10.95;;;7.00;;
75358;SDS011;64046;51.978;5.934;2023-04-15T05:56:09;8.05;;;6.20;;
75358;SDS011;64046;51.978;5.934;2023-04-15T05:58:38;9.18;;;6.35;;
75358;SDS011;64046;51.978;5.934;2023-04-15T06:01:07;14.27;;;7.80;;
75358;SDS011;64046;51.978;5.934;2023-04-15T06:03:39;11.05;;;6.95;;
75358;SDS011;64046;51.978;5.934;2023-04-15T06:06:08;8.98;;;5.85;;
75358;SDS011;64046;51.978;5.934;2023-04-15T06:08:38;11.35;;;7.93;;
75358;SDS011;64046;51.978;5.934;2023-04-15T06:11:07;10.20;;;6.88;;
75358;SDS011;64046;51.978;5.934;2023-04-15T06:13:36;13.35;;;7.45;;
75358;SDS011;64046;51.978;5.934;2023-04-15T06:16:06;9.15;;;6.50;;
75358;SDS011;64046;51.978;5.934;2023-04-15T06:18:35;10.50;;;6.93;;
75358;SDS011;64046;51.978;5.934;2023-04-15T06:21:07;9.73;;;6.35;;
75358;SDS011;64046;51.978;5.934;2023-04-15T06:23:36;9.95;;;7.35;;
75358;SDS011;64046;51.978;5.934;2023-04-15T06:26:05;8.05;;;6.43;;
75358;SDS011;64046;51.978;5.934;2023-04-15T06:28:35;10.00;;;7.20;;
75358;SDS011;64046;51.978;5.934;2023-04-15T06:31:04;8.45;;;6.10;;
75358;SDS011;64046;51.978;5.934;2023-04-15T06:33:33;10.13;;;6.82;;
75358;SDS011;64046;51.978;5.934;2023-04-15T06:36:02;11.70;;;6.72;;
75358;SDS011;64046;51.978;5.934;2023-04-15T06:38:34;8.30;;;6.03;;
75358;SDS011;64046;51.978;5.934;2023-04-15T06:41:03;8.23;;;6.57;;
75358;SDS011;64046;51.978;5.934;2023-04-15T06:43:33;11.45;;;6.50;;
75358;SDS011;64046;51.978;5.934;2023-04-15T06:46:02;10.93;;;6.03;;
75358;SDS011;64046;51.978;5.934;2023-04-15T06:48:31;12.15;;;6.05;;
75358;SDS011;64046;51.978;5.934;2023-04-15T06:51:00;9.63;;;6.47;;
75358;SDS011;64046;51.978;5.934;2023-04-15T06:53:29;13.02;;;7.35;;
75358;SDS011;64046;51.978;5.934;2023-04-15T06:56:01;8.15;;;6.30;;
75358;SDS011;64046;51.978;5.934;2023-04-15T06:58:30;7.82;;;5.63;;
75358;SDS011;64046;51.978;5.934;2023-04-15T07:00:59;11.65;;;7.07;;
75358;SDS011;64046;51.978;5.934;2023-04-15T07:03:29;11.10;;;6.63;;
75358;SDS011;64046;51.978;5.934;2023-04-15T07:05:58;7.30;;;5.32;;
75358;SDS011;64046;51.978;5.934;2023-04-15T07:08:31;8.85;;;5.82;;
75358;SDS011;64046;51.978;5.934;2023-04-15T07:11:02;11.65;;;7.60;;
75358;SDS011;64046;51.978;5.934;2023-04-15T07:13:32;10.80;;;6.90;;
75358;SDS011;64046;51.978;5.934;2023-04-15T07:16:01;13.05;;;7.43;;
75358;SDS011;64046;51.978;5.934;2023-04-15T07:18:31;7.45;;;5.45;;
75358;SDS011;64046;51.978;5.934;2023-04-15T07:21:00;9.88;;;5.43;;
75358;SDS011;64046;51.978;5.934;2023-04-15T07:23:29;9.60;;;6.30;;
75358;SDS011;64046;51.978;5.934;2023-04-15T07:25:58;10.25;;;6.07;;
75358;SDS011;64046;51.978;5.934;2023-04-15T07:28:30;8.18;;;5.95;;
75358;SDS011;64046;51.978;5.934;2023-04-15T07:30:59;9.25;;;5.13;;
75358;SDS011;64046;51.978;5.934;2023-04-15T07:33:28;9.25;;;6.85;;
75358;SDS011;64046;51.978;5.934;2023-04-15T07:35:57;8.50;;;6.57;;
75358;SDS011;64046;51.978;5.934;2023-04-15T07:38:26;10.93;;;7.00;;
75358;SDS011;64046;51.978;5.934;2023-04-15T07:40:55;8.25;;;5.30;;
75358;SDS011;64046;51.978;5.934;2023-04-15T07:43:24;11.40;;;6.32;;
75358;SDS011;64046;51.978;5.934;2023-04-15T07:45:56;12.10;;;7.15;;
75358;SDS011;64046;51.978;5.934;2023-04-15T07:48:25;8.63;;;6.35;;
75358;SDS011;64046;51.978;5.934;2023-04-15T07:50:54;9.23;;;6.10;;
75358;SDS011;64046;51.978;5.934;2023-04-15T07:53:23;9.52;;;6.45;;
75358;SDS011;64046;51.978;5.934;2023-04-15T07:55:52;10.35;;;7.00;;
75358;SDS011;64046;51.978;5.934;2023-04-15T07:58:22;9.75;;;6.53;;
75358;SDS011;64046;51.978;5.934;2023-04-15T08:00:51;11.52;;;5.97;;
75358;SDS011;64046;51.978;5.934;2023-04-15T08:03:23;9.25;;;5.20;;
75358;SDS011;64046;51.978;5.934;2023-04-15T08:05:52;10.20;;;5.28;;
75358;SDS011;64046;51.978;5.934;2023-04-15T08:08:22;7.47;;;5.43;;
75358;SDS011;64046;51.978;5.934;2023-04-15T08:10:51;6.75;;;5.07;;
75358;SDS011;64046;51.978;5.934;2023-04-15T08:13:20;8.75;;;5.78;;
75358;SDS011;64046;51.978;5.934;2023-04-15T08:15:52;11.90;;;6.03;;
75358;SDS011;64046;51.978;5.934;2023-04-15T08:18:43;9.18;;;4.85;;
75358;SDS011;64046;51.978;5.934;2023-04-15T08:21:12;8.18;;;5.55;;
75358;SDS011;64046;51.978;5.934;2023-04-15T08:23:42;7.00;;;4.65;;
75358;SDS011;64046;51.978;5.934;2023-04-15T08:26:12;6.43;;;3.90;;
75358;SDS011;64046;51.978;5.934;2023-04-15T08:28:41;7.25;;;4.25;;
75358;SDS011;64046;51.978;5.934;2023-04-15T08:31:11;5.78;;;3.72;;
75358;SDS011;64046;51.978;5.934;2023-04-15T08:33:44;5.60;;;4.03;;
75358;SDS011;64046;51.978;5.934;2023-04-15T08:36:13;6.80;;;4.07;;
75358;SDS011;64046;51.978;5.934;2023-04-15T08:38:43;5.45;;;3.95;;
75358;SDS011;64046;51.978;5.934;2023-04-15T08:41:16;4.95;;;3.38;;
75358;SDS011;64046;51.978;5.934;2023-04-15T08:43:53;5.60;;;3.40;;
75358;SDS011;64046;51.978;5.934;2023-04-15T08:46:26;6.07;;;4.40;;
75358;SDS011;64046;51.978;5.934;2023-04-15T08:48:58;5.13;;;3.97;;
75358;SDS011;64046;51.978;5.934;2023-04-15T08:51:28;5.03;;;3.58;;
75358;SDS011;64046;51.978;5.934;2023-04-15T08:53:57;5.43;;;3.63;;
75358;SDS011;64046;51.978;5.934;2023-04-15T08:56:27;5.78;;;3.50;;
75358;SDS011;64046;51.978;5.934;2023-04-15T08:58:59;9.70;;;4.50;;
75358;SDS011;64046;51.978;5.934;2023-04-15T09:01:28;6.95;;;4.28;;
75358;SDS011;64046;51.978;5.934;2023-04-15T09:04:00;5.80;;;4.13;;
75358;SDS011;64046;51.978;5.934;2023-04-15T09:06:32;9.05;;;4.45;;
75358;SDS011;64046;51.978;5.934;2023-04-15T09:09:02;5.32;;;4.03;;
75358;SDS011;64046;51.978;5.934;2023-04-15T09:11:31;9.02;;;4.55;;
75358;SDS011;64046;51.978;5.934;2023-04-15T09:14:01;10.13;;;4.75;;
75358;SDS011;64046;51.978;5.934;2023-04-15T09:16:30;6.63;;;3.88;;
75358;SDS011;64046;51.978;5.934;2023-04-15T09:19:01;5.63;;;4.07;;
75358;SDS011;64046;51.978;5.934;2023-04-15T09:21:49;7.50;;;4.10;;
75358;SDS011;64046;51.978;5.934;2023-04-15T09:24:19;6.20;;;3.90;;
75358;SDS011;64046;51.978;5.934;2023-04-15T09:26:51;5.05;;;3.45;;
75358;SDS011;64046;51.978;5.934;2023-04-15T09:29:23;5.22;;;3.53;;
75358;SDS011;64046;51.978;5.934;2023-04-15T09:31:52;6.13;;;4.00;;
75358;SDS011;64046;51.978;5.934;2023-04-15T09:34:24;7.05;;;3.90;;
75358;SDS011;64046;51.978;5.934;2023-04-15T09:37:03;6.63;;;3.92;;
75358;SDS011;64046;51.978;5.934;2023-04-15T09:39:44;4.78;;;3.53;;
75358;SDS011;64046;51.978;5.934;2023-04-15T09:42:16;5.95;;;4.00;;
75358;SDS011;64046;51.978;5.934;2023-04-15T09:44:49;6.65;;;3.83;;
75358;SDS011;64046;51.978;5.934;2023-04-15T09:47:27;4.95;;;3.72;;
75358;SDS011;64046;51.978;5.934;2023-04-15T09:49:59;5.90;;;3.53;;
75358;SDS011;64046;51.978;5.934;2023-04-15T09:52:29;5.72;;;3.25;;
75358;SDS011;64046;51.978;5.934;2023-04-15T09:54:58;4.82;;;2.92;;
75358;SDS011;64046;51.978;5.934;2023-04-15T09:57:32;4.05;;;3.08;;
75358;SDS011;64046;51.978;5.934;2023-04-15T10:00:03;5.35;;;3.28;;
75358;SDS011;64046;51.978;5.934;2023-04-15T10:02:32;5.07;;;3.30;;
75358;SDS011;64046;51.978;5.934;2023-04-15T10:05:05;5.22;;;3.63;;
75358;SDS011;64046;51.978;5.934;2023-04-15T10:07:35;5.90;;;3.58;;
75358;SDS011;64046;51.978;5.934;2023-04-15T10:10:06;5.70;;;4.13;;
75358;SDS011;64046;51.978;5.934;2023-04-15T10:12:36;7.28;;;3.88;;
75358;SDS011;64046;51.978;5.934;2023-04-15T10:15:06;5.60;;;4.13;;
75358;SDS011;64046;51.978;5.934;2023-04-15T10:17:42;6.78;;;3.88;;
75358;SDS011;64046;51.978;5.934;2023-04-15T10:20:14;5.40;;;3.33;;
75358;SDS011;64046;51.978;5.934;2023-04-15T10:22:47;5.75;;;3.80;;
75358;SDS011;64046;51.978;5.934;2023-04-15T10:25:17;4.97;;;3.78;;
75358;SDS011;64046;51.978;5.934;2023-04-15T10:27:47;6.50;;;3.58;;
75358;SDS011;64046;51.978;5.934;2023-04-15T10:30:17;6.43;;;3.63;;
75358;SDS011;64046;51.978;5.934;2023-04-15T10:32:47;5.88;;;3.83;;
75358;SDS011;64046;51.978;5.934;2023-04-15T10:35:19;4.35;;;3.17;;
75358;SDS011;64046;51.978;5.934;2023-04-15T10:37:50;5.13;;;3.67;;
75358;SDS011;64046;51.978;5.934;2023-04-15T10:40:25;4.88;;;3.30;;
75358;SDS011;64046;51.978;5.934;2023-04-15T10:42:57;5.32;;;2.58;;
75358;SDS011;64046;51.978;5.934;2023-04-15T10:45:27;4.78;;;3.45;;
75358;SDS011;64046;51.978;5.934;2023-04-15T10:48:01;6.35;;;3.72;;
75358;SDS011;64046;51.978;5.934;2023-04-15T10:50:34;5.97;;;3.22;;
75358;SDS011;64046;51.978;5.934;2023-04-15T10:53:05;5.93;;;3.17;;
75358;SDS011;64046;51.978;5.934;2023-04-15T10:55:37;5.78;;;3.00;;
75358;SDS011;64046;51.978;5.934;2023-04-15T10:58:06;5.60;;;3.17;;
75358;SDS011;64046;51.978;5.934;2023-04-15T11:00:39;4.07;;;2.85;;
75358;SDS011;64046;51.978;5.934;2023-04-15T11:03:20;4.75;;;2.75;;
75358;SDS011;64046;51.978;5.934;2023-04-15T11:06:07;4.68;;;2.75;;
75358;SDS011;64046;51.978;5.934;2023-04-15T11:11:21;5.57;;;3.33;;
75358;SDS011;64046;51.978;5.934;2023-04-15T11:13:50;4.70;;;3.08;;
75358;SDS011;64046;51.978;5.934;2023-04-15T11:16:20;7.30;;;3.55;;
75358;SDS011;64046;51.978;5.934;2023-04-15T11:18:52;4.93;;;2.80;;
75358;SDS011;64046;51.978;5.934;2023-04-15T11:21:25;4.57;;;3.05;;
75358;SDS011;64046;51.978;5.934;2023-04-15T11:23:55;6.53;;;2.97;;
75358;SDS011;64046;51.978;5.934;2023-04-15T11:26:24;3.85;;;2.65;;
75358;SDS011;64046;51.978;5.934;2023-04-15T11:28:54;4.07;;;2.70;;
75358;SDS011;64046;51.978;5.934;2023-04-15T11:31:25;4.00;;;2.63;;
75358;SDS011;64046;51.978;5.934;2023-04-15T11:33:56;3.15;;;2.20;;
75358;SDS011;64046;51.978;5.934;2023-04-15T11:36:29;5.13;;;2.25;;
75358;SDS011;64046;51.978;5.934;2023-04-15T11:38:59;7.63;;;3.70;;
75358;SDS011;64046;51.978;5.934;2023-04-15T11:41:28;2.88;;;2.08;;
75358;SDS011;64046;51.978;5.934;2023-04-15T11:43:58;2.88;;;2.03;;
75358;SDS011;64046;51.978;5.934;2023-04-15T11:46:30;5.55;;;1.77;;
75358;SDS011;64046;51.978;5.934;2023-04-15T11:48:59;4.97;;;2.08;;
75358;SDS011;64046;51.978;5.934;2023-04-15T11:51:34;3.60;;;1.77;;
75358;SDS011;64046;51.978;5.934;2023-04-15T11:54:03;3.35;;;2.08;;
75358;SDS011;64046;51.978;5.934;2023-04-15T11:56:32;4.00;;;1.73;;
75358;SDS011;64046;51.978;5.934;2023-04-15T11:59:01;5.20;;;1.90;;
75358;SDS011;64046;51.978;5.934;2023-04-15T12:01:31;3.08;;;1.55;;
75358;SDS011;64046;51.978;5.934;2023-04-15T12:04:01;2.47;;;1.60;;
75358;SDS011;64046;51.978;5.934;2023-04-15T12:06:35;2.50;;;1.50;;
75358;SDS011;64046;51.978;5.934;2023-04-15T12:09:08;3.28;;;1.95;;
75358;SDS011;64046;51.978;5.934;2023-04-15T12:11:39;2.55;;;1.90;;
75358;SDS011;64046;51.978;5.934;2023-04-15T12:14:20;3.72;;;1.80;;
75358;SDS011;64046;51.978;5.934;2023-04-15T12:16:53;3.60;;;1.65;;
75358;SDS011;64046;51.978;5.934;2023-04-15T12:19:25;3.50;;;1.60;;
75358;SDS011;64046;51.978;5.934;2023-04-15T12:22:00;2.95;;;1.60;;
75358;SDS011;64046;51.978;5.934;2023-04-15T12:24:31;2.35;;;1.50;;
75358;SDS011;64046;51.978;5.934;2023-04-15T12:27:02;4.40;;;1.77;;
75358;SDS011;64046;51.978;5.934;2023-04-15T12:29:32;3.45;;;1.70;;
75358;SDS011;64046;51.978;5.934;2023-04-15T12:32:04;2.90;;;1.50;;
75358;SDS011;64046;51.978;5.934;2023-04-15T12:34:35;3.63;;;1.50;;
75358;SDS011;64046;51.978;5.934;2023-04-15T12:37:08;3.38;;;1.30;;
75358;SDS011;64046;51.978;5.934;2023-04-15T12:39:39;3.58;;;1.80;;
75358;SDS011;64046;51.978;5.934;2023-04-15T12:42:10;4.22;;;2.28;;
75358;SDS011;64046;51.978;5.934;2023-04-15T12:44:40;3.00;;;1.40;;
75358;SDS011;64046;51.978;5.934;2023-04-15T12:47:09;2.40;;;1.30;;
75358;SDS011;64046;51.978;5.934;2023-04-15T12:49:39;6.75;;;1.85;;
75358;SDS011;64046;51.978;5.934;2023-04-15T12:52:11;6.65;;;1.90;;
75358;SDS011;64046;51.978;5.934;2023-04-15T12:54:41;2.30;;;1.60;;
75358;SDS011;64046;51.978;5.934;2023-04-15T12:57:10;3.72;;;1.83;;
75358;SDS011;64046;51.978;5.934;2023-04-15T12:59:39;3.13;;;1.88;;
75358;SDS011;64046;51.978;5.934;2023-04-15T13:02:08;3.78;;;1.67;;
75358;SDS011;64046;51.978;5.934;2023-04-15T13:04:38;4.35;;;2.05;;
75358;SDS011;64046;51.978;5.934;2023-04-15T13:07:07;2.10;;;1.45;;
75358;SDS011;64046;51.978;5.934;2023-04-15T13:09:41;2.58;;;1.30;;
75358;SDS011;64046;51.978;5.934;2023-04-15T13:12:10;3.78;;;2.00;;
75358;SDS011;64046;51.978;5.934;2023-04-15T13:14:39;2.75;;;1.60;;
75358;SDS011;64046;51.978;5.934;2023-04-15T13:17:08;3.65;;;1.60;;
75358;SDS011;64046;51.978;5.934;2023-04-15T13:19:37;2.75;;;1.27;;
75358;SDS011;64046;51.978;5.934;2023-04-15T13:22:06;2.33;;;1.42;;
75358;SDS011;64046;51.978;5.934;2023-04-15T13:24:36;3.15;;;1.13;;
75358;SDS011;64046;51.978;5.934;2023-04-15T13:27:08;2.63;;;1.48;;
75358;SDS011;64046;51.978;5.934;2023-04-15T13:29:37;2.00;;;1.50;;
75358;SDS011;64046;51.978;5.934;2023-04-15T13:32:07;2.22;;;1.27;;
75358;SDS011;64046;51.978;5.934;2023-04-15T13:34:36;1.80;;;1.35;;
75358;SDS011;64046;51.978;5.934;2023-04-15T13:37:05;2.53;;;1.10;;
75358;SDS011;64046;51.978;5.934;2023-04-15T13:39:34;3.15;;;1.25;;
75358;SDS011;64046;51.978;5.934;2023-04-15T13:42:03;2.58;;;1.35;;
75358;SDS011;64046;51.978;5.934;2023-04-15T13:44:35;2.35;;;1.10;;
75358;SDS011;64046;51.978;5.934;2023-04-15T13:47:04;1.50;;;1.20;;
75358;SDS011;64046;51.978;5.934;2023-04-15T13:49:33;2.42;;;1.42;;
75358;SDS011;64046;51.978;5.934;2023-04-15T13:52:02;1.75;;;1.00;;
75358;SDS011;64046;51.978;5.934;2023-04-15T13:54:31;1.98;;;1.00;;
75358;SDS011;64046;51.978;5.934;2023-04-15T13:57:00;1.50;;;1.00;;
75358;SDS011;64046;51.978;5.934;2023-04-15T13:59:30;2.00;;;1.02;;
75358;SDS011;64046;51.978;5.934;2023-04-15T14:02:03;1.42;;;1.10;;
75358;SDS011;64046;51.978;5.934;2023-04-15T14:04:32;3.28;;;1.40;;
75358;SDS011;64046;51.978;5.934;2023-04-15T14:07:01;4.00;;;1.27;;
75358;SDS011;64046;51.978;5.934;2023-04-15T14:09:31;2.00;;;1.35;;
75358;SDS011;64046;51.978;5.934;2023-04-15T14:12:00;2.55;;;1.23;;
75358;SDS011;64046;51.978;5.934;2023-04-15T14:14:29;3.55;;;1.50;;
75358;SDS011;64046;51.978;5.934;2023-04-15T14:16:58;1.60;;;1.10;;
75358;SDS011;64046;51.978;5.934;2023-04-15T14:19:31;2.58;;;1.42;;
75358;SDS011;64046;51.978;5.934;2023-04-15T14:22:03;4.43;;;1.60;;
75358;SDS011;64046;51.978;5.934;2023-04-15T14:24:32;2.58;;;1.10;;
75358;SDS011;64046;51.978;5.934;2023-04-15T14:27:01;1.50;;;1.10;;
75358;SDS011;64046;51.978;5.934;2023-04-15T14:29:30;2.42;;;1.20;;
75358;SDS011;64046;51.978;5.934;2023-04-15T14:32:00;2.05;;;1.50;;
75358;SDS011;64046;51.978;5.934;2023-04-15T14:34:31;5.80;;;2.75;;
75358;SDS011;64046;51.978;5.934;2023-04-15T14:37:01;5.82;;;1.42;;
75358;SDS011;64046;51.978;5.934;2023-04-15T14:39:31;4.05;;;1.80;;
75358;SDS011;64046;51.978;5.934;2023-04-15T14:42:00;5.03;;;1.40;;
75358;SDS011;64046;51.978;5.934;2023-04-15T14:44:29;2.15;;;1.48;;
75358;SDS011;64046;51.978;5.934;2023-04-15T14:46:58;1.70;;;1.40;;
75358;SDS011;64046;51.978;5.934;2023-04-15T14:49:27;4.35;;;1.67;;
75358;SDS011;64046;51.978;5.934;2023-04-15T14:51:59;3.55;;;1.70;;
75358;SDS011;64046;51.978;5.934;2023-04-15T14:54:28;3.63;;;1.25;;
75358;SDS011;64046;51.978;5.934;2023-04-15T14:56:57;2.47;;;1.20;;
75358;SDS011;64046;51.978;5.934;2023-04-15T14:59:26;3.28;;;1.52;;
75358;SDS011;64046;51.978;5.934;2023-04-15T15:01:55;7.40;;;1.85;;
75358;SDS011;64046;51.978;5.934;2023-04-15T15:04:24;3.92;;;1.80;;
75358;SDS011;64046;51.978;5.934;2023-04-15T15:06:53;8.27;;;2.08;;